createdAt,value
2023-05-14T00:00:47.457Z,10.17
2023-05-14T00:03:14.596Z,10.17
2023-05-14T00:05:41.340Z,10.23
2023-05-14T00:08:08.022Z,10.18
2023-05-14T00:10:35.101Z,10.10
2023-05-14T00:13:01.878Z,10.12
2023-05-14T00:15:28.489Z,10.11
2023-05-14T00:17:55.140Z,10.18
2023-05-14T00:20:22.030Z,10.15
2023-05-14T00:22:48.829Z,10.15
2023-05-14T00:25:15.427Z,10.13
2023-05-14T00:27:42.011Z,10.13
2023-05-14T00:30:08.956Z,10.17
2023-05-14T00:32:35.563Z,10.13
2023-05-14T00:35:04.301Z,10.12
2023-05-14T00:37:30.940Z,10.12
2023-05-14T00:39:58.462Z,10.13
2023-05-14T00:42:25.105Z,10.12
2023-05-14T00:44:52.005Z,10.12
2023-05-14T00:47:19.066Z,10.12
2023-05-14T00:49:45.921Z,10.12
2023-05-14T00:52:12.854Z,10.12
2023-05-14T00:54:39.600Z,10.10
2023-05-14T00:57:06.979Z,10.15
2023-05-14T00:59:33.853Z,10.13
2023-05-14T01:02:00.523Z,10.14
2023-05-14T01:04:27.627Z,10.13
2023-05-14T01:07:30.632Z,10.07
2023-05-14T01:10:06.159Z,10.13
2023-05-14T01:12:59.547Z,10.10
2023-05-14T01:15:31.250Z,10.12
2023-05-14T01:18:07.839Z,10.11
2023-05-14T01:20:34.711Z,10.07
2023-05-14T01:23:01.370Z,10.10
2023-05-14T01:25:29.222Z,10.08
2023-05-14T01:28:20.092Z,10.09
2023-05-14T01:30:53.542Z,10.08
2023-05-14T01:33:22.308Z,10.09
2023-05-14T01:35:50.006Z,10.05
2023-05-14T01:38:18.961Z,10.13
2023-05-14T01:40:47.160Z,10.08
2023-05-14T01:43:15.595Z,10.09
2023-05-14T01:45:42.660Z,10.11
2023-05-14T01:48:09.407Z,10.15
2023-05-14T01:50:36.060Z,10.15
2023-05-14T01:53:03.009Z,10.07
2023-05-14T01:55:29.599Z,10.11
2023-05-14T01:57:56.243Z,10.12
2023-05-14T02:00:25.848Z,10.15
2023-05-14T02:02:52.836Z,10.15
2023-05-14T02:05:19.630Z,10.07
2023-05-14T02:07:46.320Z,10.10
2023-05-14T02:10:13.306Z,10.04
2023-05-14T02:12:39.963Z,10.07
2023-05-14T02:15:08.921Z,10.04
2023-05-14T02:17:35.798Z,10.05
2023-05-14T02:20:02.476Z,10.04
2023-05-14T02:22:29.073Z,10.06
2023-05-14T02:24:56.116Z,10.04
2023-05-14T02:27:22.777Z,10.01
2023-05-14T02:29:50.049Z,10.00
2023-05-14T02:32:16.679Z,9.98
2023-05-14T02:34:43.384Z,9.99
2023-05-14T02:37:09.983Z,10.00
2023-05-14T02:39:37.025Z,10.02
2023-05-14T02:42:03.717Z,10.03
2023-05-14T02:44:31.824Z,10.00
2023-05-14T02:46:58.513Z,10.01
2023-05-14T02:49:25.267Z,10.04
2023-05-14T02:51:51.879Z,10.01
2023-05-14T02:54:18.447Z,10.00
2023-05-14T02:56:45.052Z,9.96
2023-05-14T02:59:11.657Z,9.98
2023-05-14T03:01:38.669Z,9.96
2023-05-14T03:04:05.674Z,9.92
2023-05-14T03:06:32.403Z,9.92
2023-05-14T03:08:59.003Z,9.95
2023-05-14T03:11:25.901Z,10.03
2023-05-14T03:13:52.500Z,9.98
2023-05-14T03:16:19.157Z,9.97
2023-05-14T03:18:45.802Z,10.02
2023-05-14T03:21:12.583Z,9.99
2023-05-14T03:23:39.600Z,9.98
2023-05-14T03:26:06.379Z,9.94
2023-05-14T03:28:32.977Z,9.97
2023-05-14T03:30:59.892Z,9.95
2023-05-14T03:33:26.638Z,10.01
2023-05-14T03:35:53.242Z,9.99
2023-05-14T03:38:21.192Z,10.01
2023-05-14T03:40:47.861Z,9.97
2023-05-14T03:43:14.586Z,9.97
2023-05-14T03:45:41.373Z,9.95
2023-05-14T03:48:08.282Z,10.00
2023-05-14T03:50:35.388Z,10.02
2023-05-14T03:53:02.164Z,9.99
2023-05-14T03:55:30.050Z,10.02
2023-05-14T03:57:56.670Z,9.97
2023-05-14T04:00:23.531Z,10.00
2023-05-14T04:02:52.235Z,10.00
2023-05-14T04:05:18.913Z,10.02
2023-05-14T04:07:46.210Z,10.01
2023-05-14T04:10:13.792Z,10.04
2023-05-14T04:12:40.424Z,10.03
2023-05-14T04:15:08.116Z,10.04
2023-05-14T04:17:35.276Z,10.04
2023-05-14T04:20:02.064Z,10.04
2023-05-14T04:22:28.688Z,10.19
2023-05-14T04:24:55.267Z,10.11
2023-05-14T04:27:22.291Z,10.07
2023-05-14T04:29:50.045Z,10.04
2023-05-14T04:32:17.573Z,10.03
2023-05-14T04:34:44.406Z,10.03
2023-05-14T04:37:11.026Z,10.18
2023-05-14T04:39:38.405Z,10.17
2023-05-14T04:42:06.574Z,10.18
2023-05-14T04:44:34.952Z,10.16
2023-05-14T04:47:02.217Z,10.15
2023-05-14T04:49:29.174Z,10.10
2023-05-14T04:51:55.859Z,10.15
2023-05-14T04:54:22.754Z,10.21
2023-05-14T04:56:50.172Z,10.17
2023-05-14T04:59:16.772Z,10.15
2023-05-14T05:01:43.529Z,10.17
2023-05-14T05:04:10.347Z,10.20
2023-05-14T05:06:37.097Z,10.22
2023-05-14T05:09:04.502Z,10.22
2023-05-14T05:11:31.099Z,10.22
2023-05-14T05:13:57.697Z,10.25
2023-05-14T05:16:24.352Z,10.23
2023-05-14T05:18:51.043Z,10.23
2023-05-14T05:21:17.676Z,10.28
2023-05-14T05:23:44.251Z,10.27
2023-05-14T05:26:10.831Z,10.32
2023-05-14T05:28:37.414Z,10.32
2023-05-14T05:31:04.129Z,10.27
2023-05-14T05:33:31.105Z,10.31
2023-05-14T05:35:57.727Z,10.33
2023-05-14T05:38:24.326Z,10.27
2023-05-14T05:40:51.132Z,10.30
2023-05-14T05:43:18.021Z,10.24
2023-05-14T05:45:46.017Z,10.35
2023-05-14T05:48:12.656Z,10.33
2023-05-14T05:50:39.253Z,10.38
2023-05-14T05:53:06.178Z,10.33
2023-05-14T05:55:32.785Z,10.29
2023-05-14T05:57:59.395Z,10.35
2023-05-14T06:00:26.150Z,10.32
2023-05-14T06:02:52.992Z,10.39
2023-05-14T06:05:19.718Z,10.41
2023-05-14T06:07:46.364Z,10.41
2023-05-14T06:10:12.945Z,10.36
2023-05-14T06:12:40.440Z,10.40
2023-05-14T06:15:07.548Z,10.45
2023-05-14T06:17:34.200Z,10.44
2023-05-14T06:20:00.811Z,10.47
2023-05-14T06:22:27.402Z,10.55
2023-05-14T06:24:53.992Z,10.60
2023-05-14T06:27:20.543Z,10.66
2023-05-14T06:29:47.130Z,10.71
2023-05-14T06:32:15.572Z,10.75
2023-05-14T06:34:42.636Z,10.85
2023-05-14T06:37:10.405Z,10.86
2023-05-14T06:39:37.791Z,10.88
2023-05-14T06:42:05.157Z,10.87
2023-05-14T06:44:31.979Z,10.87
2023-05-14T06:46:58.560Z,10.84
2023-05-14T06:49:25.222Z,10.87
2023-05-14T06:51:52.354Z,10.74
2023-05-14T06:54:20.449Z,10.75
2023-05-14T06:56:47.139Z,10.80
2023-05-14T06:59:13.759Z,10.83
2023-05-14T07:01:40.983Z,10.93
2023-05-14T07:04:07.902Z,10.95
2023-05-14T07:06:34.739Z,11.04
2023-05-14T07:09:02.016Z,10.99
2023-05-14T07:11:28.680Z,10.89
2023-05-14T07:13:55.310Z,10.89
2023-05-14T07:16:21.914Z,10.95
2023-05-14T07:18:48.526Z,10.96
2023-05-14T07:21:15.256Z,10.93
2023-05-14T07:23:41.835Z,10.92
2023-05-14T07:26:08.742Z,11.02
2023-05-14T07:28:35.771Z,11.00
2023-05-14T07:31:05.071Z,11.03
2023-05-14T07:33:31.741Z,11.12
2023-05-14T07:35:58.594Z,11.07
2023-05-14T07:38:25.358Z,11.07
2023-05-14T07:40:51.984Z,11.02
2023-05-14T07:43:18.575Z,11.06
2023-05-14T07:45:45.562Z,11.15
2023-05-14T07:48:12.436Z,11.07
2023-05-14T07:50:39.614Z,11.08
2023-05-14T07:53:06.263Z,11.20
2023-05-14T07:55:33.163Z,11.41
2023-05-14T07:58:00.058Z,11.37
2023-05-14T08:00:27.165Z,11.49
2023-05-14T08:02:55.761Z,11.43
2023-05-14T08:05:22.588Z,11.41
2023-05-14T08:07:49.234Z,11.46
2023-05-14T08:10:16.103Z,11.38
2023-05-14T08:12:42.960Z,11.29
2023-05-14T08:15:10.334Z,11.26
2023-05-14T08:17:37.224Z,11.26
2023-05-14T08:20:06.576Z,11.26
2023-05-14T08:22:33.263Z,11.46
2023-05-14T08:25:01.006Z,11.51
2023-05-14T08:27:27.930Z,11.60
2023-05-14T08:29:54.550Z,11.62
2023-05-14T08:32:23.793Z,11.55
2023-05-14T08:34:51.902Z,11.65
2023-05-14T08:37:18.981Z,11.55
2023-05-14T08:39:45.578Z,11.52
2023-05-14T08:42:13.454Z,11.40
2023-05-14T08:44:52.434Z,11.41
2023-05-14T08:47:22.013Z,11.49
2023-05-14T08:49:54.877Z,11.53
2023-05-14T08:52:22.855Z,11.45
2023-05-14T08:54:51.166Z,11.38
2023-05-14T08:57:20.108Z,11.31
2023-05-14T08:59:47.284Z,11.08
2023-05-14T09:02:17.003Z,11.24
2023-05-14T09:04:44.870Z,11.29
2023-05-14T09:07:11.822Z,11.41
2023-05-14T09:09:38.507Z,11.57
2023-05-14T09:12:06.424Z,11.67
2023-05-14T09:14:33.553Z,11.77
2023-05-14T09:17:00.296Z,11.75
2023-05-14T09:19:27.168Z,11.84
2023-05-14T09:21:58.352Z,11.92
2023-05-14T09:24:27.316Z,12.02
2023-05-14T09:26:56.295Z,12.26
2023-05-14T09:29:27.421Z,12.40
2023-05-14T09:31:54.742Z,12.38
2023-05-14T09:34:32.288Z,12.38
2023-05-14T09:37:04.874Z,12.48
2023-05-14T09:39:33.997Z,12.27
2023-05-14T09:42:01.389Z,12.23
2023-05-14T09:44:28.502Z,12.11
2023-05-14T09:46:56.117Z,12.12
2023-05-14T09:49:23.097Z,12.06
2023-05-14T09:51:50.350Z,12.07
2023-05-14T09:54:17.563Z,12.11
2023-05-14T09:56:44.861Z,12.09
2023-05-14T09:59:11.659Z,12.05
2023-05-14T10:01:39.503Z,12.27
2023-05-14T10:04:08.146Z,12.56
2023-05-14T10:06:39.459Z,12.85
2023-05-14T10:09:12.444Z,13.16
2023-05-14T10:11:43.668Z,13.72
2023-05-14T10:14:18.691Z,14.34
2023-05-14T10:16:50.912Z,14.77
2023-05-14T10:19:20.039Z,14.74
2023-05-14T10:22:00.755Z,14.61
2023-05-14T10:24:27.785Z,14.56
2023-05-14T10:26:54.450Z,14.53
2023-05-14T10:29:33.319Z,13.99
2023-05-14T10:32:06.288Z,14.05
2023-05-14T10:34:46.458Z,14.12
2023-05-14T10:37:16.067Z,13.75
2023-05-14T10:39:51.809Z,14.06
2023-05-14T10:42:28.956Z,14.09
2023-05-14T10:45:01.824Z,14.13
2023-05-14T10:47:29.785Z,13.86
2023-05-14T10:49:59.062Z,13.77
2023-05-14T10:52:26.452Z,13.85
2023-05-14T10:54:56.175Z,14.08
2023-05-14T10:57:25.069Z,14.19
2023-05-14T10:59:58.733Z,14.02
2023-05-14T11:02:27.334Z,13.91
2023-05-14T11:05:03.599Z,14.13
2023-05-14T11:07:33.237Z,14.09
2023-05-14T11:10:09.271Z,14.01
2023-05-14T11:12:38.187Z,13.86
2023-05-14T11:15:11.201Z,13.77
2023-05-14T11:17:40.993Z,13.61
2023-05-14T11:20:09.037Z,13.06
2023-05-14T11:22:36.979Z,12.57
2023-05-14T11:25:03.925Z,12.32
2023-05-14T11:27:32.249Z,12.32
2023-05-14T11:30:00.880Z,12.12
2023-05-14T11:32:27.946Z,11.88
2023-05-14T11:34:54.678Z,11.63
2023-05-14T11:37:21.449Z,11.51
2023-05-14T11:39:50.033Z,11.57
2023-05-14T11:42:18.768Z,11.52
2023-05-14T11:44:52.375Z,11.28
2023-05-14T11:47:20.953Z,11.29
2023-05-14T11:49:48.657Z,11.23
2023-05-14T11:52:16.643Z,11.22
2023-05-14T11:54:44.176Z,11.30
2023-05-14T11:57:16.733Z,11.38
2023-05-14T11:59:43.823Z,11.31
2023-05-14T12:02:12.554Z,11.41
2023-05-14T12:04:39.972Z,11.50
2023-05-14T12:07:15.682Z,11.58
2023-05-14T12:09:51.136Z,11.16
2023-05-14T12:14:53.949Z,11.17
2023-05-14T12:17:22.767Z,10.90
2023-05-14T12:19:51.764Z,11.07
2023-05-14T12:22:20.914Z,11.10
2023-05-14T12:24:55.958Z,11.36
2023-05-14T12:27:27.786Z,11.32
2023-05-14T12:30:19.218Z,11.27
2023-05-14T12:32:51.505Z,11.23
2023-05-14T12:35:18.799Z,11.21
2023-05-14T12:37:45.440Z,11.24
2023-05-14T12:40:12.336Z,11.20
2023-05-14T12:42:39.537Z,11.12
2023-05-14T12:45:08.505Z,11.15
2023-05-14T12:47:36.194Z,11.08
2023-05-14T12:50:03.925Z,11.09
2023-05-14T12:52:37.961Z,11.01
2023-05-14T12:55:07.444Z,11.00
2023-05-14T12:57:35.404Z,10.85
2023-05-14T13:00:06.389Z,10.87
2023-05-14T13:02:33.040Z,10.90
2023-05-14T13:05:09.318Z,10.93
2023-05-14T13:07:36.104Z,11.04
2023-05-14T13:10:05.503Z,11.17
2023-05-14T13:12:32.366Z,11.16
2023-05-14T13:14:59.080Z,11.17
2023-05-14T13:17:25.786Z,11.18
2023-05-14T13:19:52.364Z,11.08
2023-05-14T13:22:19.013Z,11.07
2023-05-14T13:24:45.725Z,11.00
2023-05-14T13:27:12.430Z,10.79
2023-05-14T13:29:38.993Z,10.82
2023-05-14T13:32:05.875Z,10.82
2023-05-14T13:34:32.469Z,10.92
2023-05-14T13:36:59.092Z,10.90
2023-05-14T13:39:27.183Z,10.88
2023-05-14T13:41:57.028Z,10.78
2023-05-14T13:44:24.317Z,10.84
2023-05-14T13:46:51.084Z,10.90
2023-05-14T13:49:17.747Z,10.93
2023-05-14T13:51:44.543Z,10.86
2023-05-14T13:54:11.257Z,10.86
2023-05-14T13:56:37.884Z,10.92
2023-05-14T13:59:04.649Z,10.89
2023-05-14T14:01:31.689Z,10.81
2023-05-14T14:03:58.549Z,10.85
2023-05-14T14:06:27.414Z,10.85
2023-05-14T14:08:54.120Z,10.90
2023-05-14T14:11:20.975Z,10.89
2023-05-14T14:13:47.620Z,10.93
2023-05-14T14:16:14.365Z,10.86
2023-05-14T14:18:43.014Z,10.82
2023-05-14T14:21:10.247Z,10.86
2023-05-14T14:23:36.866Z,10.83
2023-05-14T14:26:03.905Z,10.83
2023-05-14T14:28:30.814Z,10.76
2023-05-14T14:30:57.409Z,10.72
2023-05-14T14:33:23.968Z,10.73
2023-05-14T14:35:50.584Z,10.87
2023-05-14T14:38:17.223Z,10.93
2023-05-14T14:40:43.857Z,10.83
2023-05-14T14:43:10.726Z,10.90
2023-05-14T14:45:37.415Z,10.87
2023-05-14T14:48:24.398Z,10.89
2023-05-14T14:50:51.993Z,10.93
2023-05-14T14:53:19.875Z,11.01
2023-05-14T14:55:47.155Z,11.01
2023-05-14T14:58:13.767Z,10.98
2023-05-14T15:00:40.633Z,10.95
2023-05-14T15:03:09.209Z,10.96
2023-05-14T15:05:36.030Z,10.97
2023-05-14T15:08:02.596Z,10.92
2023-05-14T15:10:29.502Z,10.92
2023-05-14T15:12:59.745Z,10.93
2023-05-14T15:15:26.691Z,10.91
2023-05-14T15:17:53.372Z,10.93
2023-05-14T15:20:20.017Z,10.93
2023-05-14T15:22:46.744Z,11.00
2023-05-14T15:25:13.369Z,11.01
2023-05-14T15:27:39.966Z,11.04
2023-05-14T15:30:07.334Z,11.03
2023-05-14T15:32:34.199Z,11.07
2023-05-14T15:35:01.265Z,11.08
2023-05-14T15:37:28.418Z,11.09
2023-05-14T15:39:55.076Z,11.04
2023-05-14T15:42:22.538Z,11.04
2023-05-14T15:44:49.201Z,11.03
2023-05-14T15:47:15.971Z,11.05
2023-05-14T15:49:42.535Z,11.04
2023-05-14T15:52:09.178Z,11.05
2023-05-14T15:54:35.866Z,11.04
2023-05-14T15:57:02.636Z,10.94
2023-05-14T15:59:30.459Z,10.98
2023-05-14T16:01:57.058Z,10.94
2023-05-14T16:04:23.815Z,10.85
2023-05-14T16:06:51.237Z,10.90
2023-05-14T16:09:17.911Z,10.85
2023-05-14T16:11:44.596Z,10.89
2023-05-14T16:14:11.734Z,10.89
2023-05-14T16:16:38.404Z,10.91
2023-05-14T16:19:05.153Z,10.92
2023-05-14T16:21:32.790Z,10.99
2023-05-14T16:23:59.407Z,11.03
2023-05-14T16:26:26.484Z,11.08
2023-05-14T16:28:53.068Z,11.14
2023-05-14T16:31:20.464Z,11.16
2023-05-14T16:33:47.129Z,11.12
2023-05-14T16:36:13.739Z,11.16
2023-05-14T16:38:52.394Z,11.15
2023-05-14T16:41:27.009Z,11.26
2023-05-14T16:43:53.661Z,11.24
2023-05-14T16:46:20.375Z,11.33
2023-05-14T16:48:47.054Z,11.49
2023-05-14T16:51:13.846Z,11.49
2023-05-14T16:53:40.970Z,11.51
2023-05-14T16:56:07.652Z,11.51
2023-05-14T16:58:34.252Z,11.49
2023-05-14T17:01:00.872Z,11.48
2023-05-14T17:03:27.608Z,11.46
2023-05-14T17:05:54.289Z,11.47
2023-05-14T17:08:20.972Z,11.38
2023-05-14T17:10:47.543Z,11.23
2023-05-14T17:13:14.215Z,10.99
2023-05-14T17:15:42.404Z,10.96
2023-05-14T17:18:09.173Z,10.88
2023-05-14T17:20:36.023Z,10.86
2023-05-14T17:23:02.644Z,10.86
2023-05-14T17:25:29.248Z,10.79
2023-05-14T17:27:55.854Z,10.73
2023-05-14T17:30:22.544Z,10.67
2023-05-14T17:32:51.114Z,10.61
2023-05-14T17:35:17.940Z,10.57
2023-05-14T17:37:44.650Z,10.59
2023-05-14T17:40:11.727Z,10.56
2023-05-14T17:42:38.356Z,10.58
2023-05-14T17:45:05.870Z,10.52
2023-05-14T17:47:32.650Z,10.52
2023-05-14T17:49:59.309Z,10.52
2023-05-14T17:52:25.985Z,10.49
2023-05-14T17:54:52.660Z,10.46
2023-05-14T17:57:19.346Z,10.42
2023-05-14T17:59:46.012Z,10.43
2023-05-14T18:02:12.573Z,10.38
2023-05-14T18:04:39.216Z,10.38
2023-05-14T18:07:06.183Z,10.33
2023-05-14T18:09:32.999Z,10.26
2023-05-14T18:11:59.625Z,10.33
2023-05-14T18:14:26.829Z,10.32
2023-05-14T18:16:53.765Z,10.34
2023-05-14T18:19:20.554Z,10.33
2023-05-14T18:21:48.190Z,10.26
2023-05-14T18:24:14.920Z,10.28
2023-05-14T18:26:41.910Z,10.30
2023-05-14T18:29:08.710Z,10.42
2023-05-14T18:31:35.340Z,10.45
2023-05-14T18:34:02.030Z,10.44
2023-05-14T18:36:28.958Z,10.36
2023-05-14T18:38:55.536Z,10.22
2023-05-14T18:41:22.453Z,10.30
2023-05-14T18:43:49.087Z,10.28
2023-05-14T18:46:16.053Z,10.21
2023-05-14T18:48:42.873Z,10.21
2023-05-14T18:51:11.296Z,10.23
2023-05-14T18:53:38.434Z,10.23
2023-05-14T18:56:05.311Z,10.24
2023-05-14T18:58:32.070Z,10.20
2023-05-14T19:00:59.037Z,10.22
2023-05-14T19:03:26.169Z,10.20
2023-05-14T19:05:53.752Z,10.21
2023-05-14T19:08:20.472Z,10.19
2023-05-14T19:10:47.297Z,10.21
2023-05-14T19:13:15.932Z,10.20
2023-05-14T19:15:43.362Z,10.12
2023-05-14T19:18:10.805Z,10.12
2023-05-14T19:20:37.588Z,10.09
2023-05-14T19:23:04.253Z,10.07
2023-05-14T19:25:31.059Z,10.12
2023-05-14T19:27:57.865Z,10.07
2023-05-14T19:30:24.482Z,10.02
2023-05-14T19:32:51.226Z,10.04
2023-05-14T19:35:18.476Z,10.00
2023-05-14T19:37:46.784Z,9.98
2023-05-14T19:40:13.557Z,9.95
2023-05-14T19:42:40.165Z,9.94
2023-05-14T19:45:07.372Z,9.95
2023-05-14T19:47:34.308Z,9.95
2023-05-14T19:50:01.081Z,9.92
2023-05-14T19:52:27.687Z,9.91
2023-05-14T19:54:54.446Z,9.91
2023-05-14T19:57:21.119Z,9.94
2023-05-14T19:59:47.716Z,9.94
2023-05-14T20:02:18.502Z,9.88
2023-05-14T20:04:46.133Z,9.89
2023-05-14T20:07:17.249Z,9.91
2023-05-14T20:09:43.851Z,9.88
2023-05-14T20:12:10.806Z,9.88
2023-05-14T20:14:37.390Z,9.82
2023-05-14T20:17:04.561Z,9.77
2023-05-14T20:19:31.607Z,9.76
2023-05-14T20:21:58.191Z,9.84
2023-05-14T20:24:25.034Z,9.83
2023-05-14T20:26:51.737Z,9.78
2023-05-14T20:29:18.334Z,9.86
2023-05-14T20:31:44.912Z,9.79
2023-05-14T20:34:11.488Z,9.82
2023-05-14T20:36:38.153Z,9.78
2023-05-14T20:39:06.196Z,9.81
2023-05-14T20:41:32.819Z,9.79
2023-05-14T20:43:59.777Z,9.86
2023-05-14T20:46:26.563Z,9.83
2023-05-14T20:48:57.239Z,9.85
2023-05-14T20:51:23.870Z,9.85
2023-05-14T20:53:50.414Z,9.86
2023-05-14T20:56:17.065Z,9.85
2023-05-14T20:58:43.751Z,9.82
2023-05-14T21:01:10.501Z,9.74
2023-05-14T21:03:37.215Z,9.73
2023-05-14T21:06:04.107Z,9.73
2023-05-14T21:08:32.904Z,9.68
2023-05-14T21:10:59.590Z,9.59
2023-05-14T21:13:26.214Z,9.57
2023-05-14T21:15:52.891Z,9.52
2023-05-14T21:18:19.487Z,9.50
2023-05-14T21:20:46.082Z,9.54
2023-05-14T21:23:12.877Z,9.57
2023-05-14T21:25:39.580Z,9.49
2023-05-14T21:28:06.154Z,9.45
2023-05-14T21:30:32.812Z,9.54
2023-05-14T21:32:59.466Z,9.53
2023-05-14T21:35:26.297Z,9.48
2023-05-14T21:37:53.310Z,9.47
2023-05-14T21:40:19.964Z,9.37
2023-05-14T21:42:46.554Z,9.38
2023-05-14T21:45:13.310Z,9.40
2023-05-14T21:47:40.071Z,9.46
2023-05-14T21:50:07.269Z,9.49
2023-05-14T21:52:33.837Z,9.49
2023-05-14T21:55:00.443Z,9.47
2023-05-14T21:57:28.381Z,9.46
2023-05-14T21:59:55.512Z,9.45
2023-05-14T22:02:22.211Z,9.46
2023-05-14T22:04:48.864Z,9.44
2023-05-14T22:07:15.744Z,9.43
2023-05-14T22:09:42.370Z,9.44
2023-05-14T22:12:09.113Z,9.49
2023-05-14T22:14:35.754Z,9.45
2023-05-14T22:17:02.347Z,9.46
2023-05-14T22:19:28.995Z,9.46
2023-05-14T22:21:55.599Z,9.44
2023-05-14T22:24:22.255Z,9.39
2023-05-14T22:26:48.910Z,9.31
2023-05-14T22:29:15.548Z,9.34
2023-05-14T22:31:42.147Z,9.26
2023-05-14T22:34:08.774Z,9.27
2023-05-14T22:36:35.444Z,9.22
2023-05-14T22:39:02.029Z,9.18
2023-05-14T22:41:28.640Z,9.12
2023-05-14T22:43:55.392Z,9.04
2023-05-14T22:46:22.072Z,9.02
2023-05-14T22:48:49.306Z,8.91
2023-05-14T22:51:16.374Z,8.83
2023-05-14T22:53:43.109Z,8.78
2023-05-14T22:56:09.705Z,8.84
2023-05-14T22:58:36.276Z,8.94
2023-05-14T23:01:03.132Z,8.88
2023-05-14T23:03:29.850Z,8.90
2023-05-14T23:05:56.519Z,8.86
2023-05-14T23:08:23.119Z,8.90
2023-05-14T23:10:49.704Z,8.95
2023-05-14T23:13:16.417Z,8.98
2023-05-14T23:15:43.821Z,8.97
2023-05-14T23:18:10.548Z,8.99
2023-05-14T23:20:37.257Z,9.01
2023-05-14T23:23:03.954Z,9.00
2023-05-14T23:25:32.345Z,9.00
2023-05-14T23:27:59.097Z,9.00
2023-05-14T23:30:25.840Z,9.04
2023-05-14T23:32:52.432Z,9.22
2023-05-14T23:35:19.055Z,9.17
2023-05-14T23:37:47.406Z,9.11
2023-05-14T23:40:14.274Z,9.07
2023-05-14T23:42:41.223Z,9.06
2023-05-14T23:45:08.456Z,9.04
2023-05-14T23:47:35.309Z,9.02
2023-05-14T23:50:02.242Z,9.05
2023-05-14T23:52:28.869Z,8.97
2023-05-14T23:54:55.523Z,8.96
2023-05-14T23:57:22.190Z,8.99
2023-05-14T23:59:48.808Z,9.01
